Time;durP1;ratioP1;P1;durP2;ratioP2;P2;SDS_P1;SDS_P2;PMS_P1;PMS_P2;Temp;Humidity;BMP_temperature;BMP_pressure;BME280_temperature;BME280_humidity;BME280_pressure;Samples;Min_cycle;Max_cycle;Signal;HPM_P1;HPM_P2
2024/04/17 00:01:15;;;;;;;8.68;1.85;;;7.00;99.90;;;6.22;100.00;101546.88;4486338;26;20327;-59
2024/04/17 00:03:16;;;;;;;12.43;2.28;;;7.00;99.90;;;6.27;100.00;101550.03;4487101;26;20031;-59
2024/04/17 00:05:17;;;;;;;10.82;2.10;;;7.00;99.90;;;6.20;100.00;101543.53;4458024;26;20432;-59
2024/04/17 00:07:18;;;;;;;4.95;1.38;;;7.00;99.90;;;6.18;100.00;101537.56;4458147;26;20000;-58
2024/04/17 00:09:19;;;;;;;12.70;1.83;;;6.90;99.90;;;6.17;100.00;101541.13;4458040;26;20347;-59
2024/04/17 00:11:20;;;;;;;10.10;2.13;;;6.90;99.90;;;6.14;100.00;101539.56;4479560;26;20016;-59
2024/04/17 00:13:21;;;;;;;6.82;1.98;;;6.90;99.90;;;6.08;100.00;101535.59;4458202;26;20028;-59
2024/04/17 00:15:22;;;;;;;10.20;2.35;;;6.80;99.90;;;6.05;100.00;101533.19;4457867;26;20032;-59
2024/04/17 00:17:23;;;;;;;14.98;2.30;;;6.80;99.90;;;5.99;100.00;101543.25;4457782;26;20004;-59
2024/04/17 00:19:24;;;;;;;9.07;2.17;;;6.80;99.90;;;6.00;100.00;101534.47;4457713;26;20004;-59
2024/04/17 00:21:24;;;;;;;19.60;2.72;;;6.80;99.90;;;6.04;100.00;101536.75;4458039;26;20026;-59
2024/04/17 00:23:27;;;;;;;9.70;1.90;;;6.80;99.90;;;6.07;100.00;101552.25;4458134;26;20037;-58
2024/04/17 00:25:28;;;;;;;5.43;1.50;;;6.80;99.90;;;6.03;100.00;101537.69;4457913;26;20020;-59
2024/04/17 00:27:28;;;;;;;11.98;2.88;;;6.80;99.90;;;6.10;100.00;101543.34;4457722;26;20041;-59
2024/04/17 00:29:29;;;;;;;12.93;1.95;;;6.80;99.90;;;6.06;100.00;101541.91;4457557;26;20011;-59
2024/04/17 00:31:30;;;;;;;9.15;2.05;;;6.80;99.90;;;6.06;100.00;101545.31;4458101;26;20074;-59
2024/04/17 00:33:31;;;;;;;13.90;2.20;;;6.80;99.90;;;6.07;100.00;101543.56;4457678;26;20061;-59
2024/04/17 00:35:32;;;;;;;10.23;2.15;;;6.80;99.90;;;6.04;100.00;101554.25;4461291;26;20036;-59
2024/04/17 00:37:33;;;;;;;9.77;2.92;;;6.80;99.90;;;5.98;100.00;101546.81;4457970;26;20010;-59
2024/04/17 00:39:35;;;;;;;10.90;2.50;;;6.80;99.90;;;5.96;100.00;101546.94;4457976;26;20332;-58
2024/04/17 00:41:35;;;;;;;10.40;2.05;;;6.70;99.90;;;6.00;100.00;101540.53;4457585;26;20317;-58
2024/04/17 00:43:36;;;;;;;11.10;2.13;;;6.70;99.90;;;5.96;100.00;101530.38;4456994;26;20023;-58
2024/04/17 00:45:46;;;;;;;10.23;2.20;;;6.70;99.90;;;5.87;100.00;101542.34;4458487;26;20036;-59
2024/04/17 00:47:47;;;;;;;14.75;1.80;;;6.60;99.90;;;5.87;100.00;101533.63;4461651;26;20525;-59
2024/04/17 00:49:48;;;;;;;12.07;2.33;;;6.60;99.90;;;5.89;100.00;101535.19;4457673;26;20073;-59
2024/04/17 00:51:50;;;;;;;6.80;2.00;;;6.60;99.90;;;5.86;100.00;101539.81;4457723;26;20007;-59
2024/04/17 00:53:51;;;;;;;8.00;2.47;;;6.60;99.90;;;5.90;100.00;101538.66;4457710;26;20070;-59
2024/04/17 00:55:54;;;;;;;11.65;3.30;;;6.60;99.90;;;5.83;100.00;101537.38;4464639;26;20011;-58
2024/04/17 00:57:56;;;;;;;7.85;2.17;;;6.60;99.90;;;5.77;100.00;101522.94;4457360;26;20049;-59
2024/04/17 00:59:57;;;;;;;10.30;2.65;;;6.60;99.90;;;5.77;100.00;101530.78;4478288;26;20000;-58
2024/04/17 01:01:58;;;;;;;15.75;2.28;;;6.50;99.90;;;5.79;100.00;101525.47;4457498;26;20023;-58
2024/04/17 01:03:59;;;;;;;11.95;2.20;;;6.60;99.90;;;5.86;100.00;101521.47;4468558;26;20008;-58
2024/04/17 01:06:00;;;;;;;9.05;2.72;;;6.60;99.90;;;5.89;100.00;101518.66;4463400;26;20024;-59
2024/04/17 01:08:02;;;;;;;14.82;2.35;;;6.60;99.90;;;5.92;100.00;101519.28;4457501;26;20014;-59
2024/04/17 01:10:04;;;;;;;8.35;1.95;;;6.60;99.90;;;5.90;100.00;101518.56;4457431;26;20004;-59
2024/04/17 01:12:08;;;;;;;9.48;1.95;;;6.60;99.90;;;5.84;100.00;101511.09;4472378;26;20447;-59
2024/04/17 01:14:09;;;;;;;8.88;1.92;;;6.60;99.90;;;5.87;100.00;101515.31;4465662;26;20004;-59
2024/04/17 01:16:10;;;;;;;12.15;3.30;;;6.60;99.90;;;5.88;100.00;101502.13;4460264;26;20011;-59
2024/04/17 01:18:12;;;;;;;12.15;2.30;;;6.60;99.90;;;5.85;100.00;101501.47;4460137;26;20015;-59
2024/04/17 01:20:13;;;;;;;11.02;2.65;;;6.60;99.90;;;5.79;100.00;101510.59;4458428;26;20447;-59
2024/04/17 01:22:14;;;;;;;13.45;2.40;;;6.60;99.90;;;5.85;100.00;101502.34;4459992;26;20050;-59
2024/04/17 01:24:15;;;;;;;17.35;3.78;;;6.60;99.90;;;5.80;100.00;101508.78;4460072;26;20051;-58
2024/04/17 01:26:16;;;;;;;11.60;2.25;;;6.50;99.90;;;5.79;100.00;101507.13;4460170;26;20043;-59
2024/04/17 01:28:17;;;;;;;12.55;2.17;;;6.50;99.90;;;5.75;100.00;101500.41;4459872;26;20014;-58
2024/04/17 01:30:18;;;;;;;8.95;2.20;;;6.50;99.90;;;5.70;100.00;101506.00;4459746;26;20035;-59
2024/04/17 01:32:19;;;;;;;8.85;2.47;;;6.50;99.90;;;5.76;100.00;101504.72;4459886;26;20004;-59
2024/04/17 01:34:20;;;;;;;8.60;1.73;;;6.50;99.90;;;5.71;100.00;101504.19;4460173;26;20021;-59
2024/04/17 01:36:20;;;;;;;9.35;3.00;;;6.50;99.90;;;5.72;100.00;101498.84;4460008;26;20012;-59
2024/04/17 01:38:21;;;;;;;15.30;2.45;;;6.50;99.90;;;5.69;100.00;101508.69;4459876;26;20386;-58
2024/04/17 01:40:22;;;;;;;12.00;2.47;;;6.50;99.90;;;5.66;100.00;101501.06;4464112;26;20433;-59
2024/04/17 01:42:23;;;;;;;7.53;1.67;;;6.40;99.90;;;5.61;100.00;101504.00;4459869;26;20024;-59
2024/04/17 01:44:24;;;;;;;12.80;3.20;;;6.40;99.90;;;5.53;100.00;101501.06;4467881;26;20008;-59
2024/04/17 01:46:24;;;;;;;14.70;2.40;;;6.30;99.90;;;5.52;100.00;101502.88;4459776;26;20035;-59
2024/04/17 01:48:25;;;;;;;13.50;2.15;;;6.30;99.90;;;5.51;100.00;101500.34;4459730;26;20004;-59
2024/04/17 01:50:30;;;;;;;10.95;2.15;;;6.30;99.90;;;5.55;100.00;101505.25;4459859;26;20076;-59
2024/04/17 01:52:30;;;;;;;13.20;2.05;;;6.30;99.90;;;5.55;100.00;101500.00;4459593;26;20000;-58
2024/04/17 01:54:31;;;;;;;15.02;2.70;;;6.30;99.90;;;5.58;100.00;101507.66;4466452;26;20031;-59
2024/04/17 01:56:32;;;;;;;9.98;1.85;;;6.30;99.90;;;5.57;100.00;101507.75;4462201;26;20444;-59
2024/04/17 01:58:33;;;;;;;14.43;2.45;;;6.30;99.90;;;5.54;100.00;101506.19;4469135;26;20010;-59
2024/04/17 02:00:37;;;;;;;10.93;2.78;;;6.30;99.90;;;5.57;100.00;101508.59;4489004;26;20000;-59
2024/04/17 02:02:38;;;;;;;14.35;2.58;;;6.30;99.90;;;5.69;100.00;101499.06;4488936;26;20015;-59
2024/04/17 02:04:38;;;;;;;9.35;2.30;;;6.40;99.90;;;5.71;100.00;101504.19;4467915;26;19996;-59
2024/04/17 02:06:39;;;;;;;10.65;2.40;;;6.40;99.90;;;5.74;100.00;101498.75;4459417;26;20000;-59
2024/04/17 02:08:40;;;;;;;11.52;2.40;;;6.40;99.90;;;5.71;100.00;101504.19;4459420;26;20012;-59
2024/04/17 02:10:41;;;;;;;14.20;2.55;;;6.40;99.90;;;5.66;100.00;101507.13;4459364;26;20028;-59
2024/04/17 02:12:42;;;;;;;8.77;2.30;;;6.40;99.90;;;5.64;100.00;101502.94;4459369;26;20004;-58
2024/04/17 02:14:43;;;;;;;7.00;1.85;;;6.40;99.90;;;5.56;100.00;101504.31;4459194;26;20027;-59
2024/04/17 02:16:44;;;;;;;9.77;2.92;;;6.40;99.90;;;5.56;100.00;101498.22;4459618;26;20028;-59
2024/04/17 02:18:44;;;;;;;10.70;2.08;;;6.30;99.90;;;5.55;100.00;101494.78;4465733;26;20000;-59
2024/04/17 02:20:45;;;;;;;12.40;2.35;;;6.30;99.90;;;5.49;100.00;101490.00;4459272;26;20015;-59
2024/04/17 02:22:46;;;;;;;10.13;1.90;;;6.30;99.90;;;5.55;100.00;101494.78;4459330;26;20019;-59
2024/04/17 02:24:47;;;;;;;7.13;2.65;;;6.30;99.90;;;5.53;100.00;101496.66;4458450;26;20012;-59
2024/04/17 02:26:48;;;;;;;9.23;3.13;;;6.30;99.90;;;5.52;100.00;101507.25;4459279;26;20036;-58
2024/04/17 02:28:48;;;;;;;12.82;2.95;;;6.30;99.90;;;5.50;100.00;101496.03;4459009;26;20040;-59
2024/04/17 02:30:49;;;;;;;11.43;2.10;;;6.30;99.90;;;5.48;100.00;101503.16;4459399;26;20004;-59
2024/04/17 02:32:53;;;;;;;10.48;2.10;;;6.30;99.90;;;5.48;100.00;101503.16;4459197;26;20004;-59
2024/04/17 02:34:54;;;;;;;10.25;2.75;;;6.20;99.90;;;5.47;100.00;101499.69;4459434;26;20012;-58
2024/04/17 02:36:55;;;;;;;5.47;2.30;;;6.20;99.90;;;5.40;100.00;101503.69;4459116;26;20053;-59
2024/04/17 02:38:56;;;;;;;18.85;2.78;;;6.20;99.90;;;5.37;100.00;101501.28;4459024;26;20064;-59
2024/04/17 02:40:56;;;;;;;10.25;2.53;;;6.20;99.90;;;5.31;100.00;101496.47;4459252;26;20004;-59
2024/04/17 02:42:57;;;;;;;12.15;1.92;;;6.10;99.90;;;5.27;100.00;101495.00;4458957;26;20077;-59
2024/04/17 02:44:58;;;;;;;12.07;3.08;;;6.10;99.90;;;5.34;100.00;101491.03;4458779;26;20004;-59
2024/04/17 02:47:00;;;;;;;11.38;2.75;;;6.10;99.90;;;5.33;100.00;101494.59;4459146;26;20040;-59
2024/04/17 02:49:01;;;;;;;7.15;2.83;;;6.10;99.90;;;5.30;100.00;101499.19;4466767;26;20072;-59
2024/04/17 02:51:02;;;;;;;12.60;2.45;;;6.10;99.90;;;5.25;100.00;101494.28;4470150;26;20016;-58
2024/04/17 02:53:03;;;;;;;18.25;2.70;;;6.00;99.90;;;5.27;100.00;101500.22;4459224;26;20028;-59
2024/04/17 02:55:05;;;;;;;8.05;2.00;;;6.00;99.90;;;5.21;100.00;101490.19;4467444;26;20011;-59
2024/04/17 02:57:05;;;;;;;13.75;2.17;;;6.00;99.90;;;5.20;100.00;101492.88;4480502;26;20026;-59
2024/04/17 02:59:06;;;;;;;9.07;2.42;;;6.00;99.90;;;5.19;100.00;101492.06;4478617;26;20000;-59
2024/04/17 03:01:15;;;;;;;14.77;2.53;;;6.00;99.90;;;5.14;100.00;101483.66;4464340;26;20046;-59
2024/04/17 03:03:16;;;;;;;12.65;2.42;;;5.90;99.90;;;5.09;100.00;101491.00;4459299;26;20004;-58
2024/04/17 03:05:17;;;;;;;10.48;2.28;;;5.90;99.90;;;5.06;100.00;101491.19;4475395;26;20020;-59
2024/04/17 03:07:18;;;;;;;9.63;2.65;;;5.90;99.90;;;5.04;100.00;101493.09;4459035;26;20748;-59
2024/04/17 03:09:18;;;;;;;13.18;2.95;;;5.90;99.90;;;5.02;100.00;101485.34;4469523;26;19999;-59
2024/04/17 03:11:19;;;;;;;11.38;3.33;;;5.80;99.90;;;4.98;100.00;101490.88;4486316;26;20000;-59
2024/04/17 03:13:20;;;;;;;12.48;2.40;;;5.80;99.90;;;4.97;100.00;101491.81;4458565;26;20011;-59
2024/04/17 03:15:21;;;;;;;11.63;2.67;;;5.80;99.90;;;4.97;100.00;101489.19;4458955;26;20055;-59
2024/04/17 03:17:22;;;;;;;11.05;2.45;;;5.80;99.90;;;4.97;100.00;101491.81;4458824;26;20036;-59
2024/04/17 03:19:23;;;;;;;8.10;2.22;;;5.80;99.90;;;4.94;100.00;101487.63;4465605;26;20027;-58
2024/04/17 03:21:24;;;;;;;11.18;2.53;;;5.70;99.90;;;4.89;100.00;101487.09;4458570;26;20025;-59
2024/04/17 03:23:25;;;;;;;8.30;2.22;;;5.70;99.90;;;4.83;100.00;101489.28;4458812;26;20021;-59
2024/04/17 03:25:27;;;;;;;12.38;2.80;;;5.70;99.90;;;4.83;100.00;101490.13;4458778;26;20485;-59
2024/04/17 03:27:27;;;;;;;7.03;1.77;;;5.60;99.90;;;4.80;100.00;101492.09;4458695;26;20051;-59
2024/04/17 03:29:28;;;;;;;16.92;2.50;;;5.60;99.90;;;4.85;100.00;101493.47;4460921;26;20033;-58
2024/04/17 03:31:29;;;;;;;8.43;1.77;;;5.60;99.90;;;4.87;100.00;101488.13;4458679;26;20095;-59
2024/04/17 03:33:30;;;;;;;6.93;1.70;;;5.60;99.90;;;4.80;100.00;101492.09;4458504;26;20024;-59
2024/04/17 03:35:31;;;;;;;13.43;1.90;;;5.60;99.90;;;4.77;100.00;101500.13;4458458;26;20000;-59
2024/04/17 03:37:31;;;;;;;11.85;2.10;;;5.60;99.90;;;4.73;100.00;101496.88;4458287;26;20018;-59
2024/04/17 03:39:32;;;;;;;9.70;2.38;;;5.50;99.90;;;4.74;100.00;101495.13;4472153;26;20042;-59
2024/04/17 03:41:33;;;;;;;13.55;2.08;;;5.50;99.90;;;4.80;100.00;101489.47;4466488;26;20041;-59
2024/04/17 03:43:34;;;;;;;7.13;2.20;;;5.60;99.90;;;4.74;100.00;101492.50;4457993;26;20004;-58
2024/04/17 03:45:35;;;;;;;9.93;2.65;;;5.50;99.90;;;4.74;100.00;101495.13;4458497;26;20033;-59
2024/04/17 03:47:39;;;;;;;9.65;2.08;;;5.50;99.90;;;4.69;100.00;101502.44;4458283;26;20041;-59
2024/04/17 03:49:39;;;;;;;10.13;2.40;;;5.50;99.90;;;4.69;100.00;101502.44;4473692;26;19999;-59
2024/04/17 03:51:40;;;;;;;9.57;1.73;;;5.50;99.90;;;4.65;100.00;101495.72;4460718;26;20440;-59
2024/04/17 03:53:41;;;;;;;5.97;1.83;;;5.50;99.90;;;4.59;100.00;101502.19;4458158;26;20008;-58
2024/04/17 03:55:42;;;;;;;5.95;1.92;;;5.40;99.90;;;4.59;100.00;101496.09;4467489;26;20065;-59
2024/04/17 03:57:43;;;;;;;8.65;2.13;;;5.40;99.90;;;4.54;100.00;101504.22;4458309;26;20347;-59
2024/04/17 03:59:44;;;;;;;7.68;1.85;;;5.40;99.90;;;4.52;100.00;101500.03;4469129;26;20032;-58
2024/04/17 04:01:44;;;;;;;5.93;1.73;;;5.30;99.90;;;4.50;100.00;101501.94;4457668;26;20032;-59
2024/04/17 04:03:45;;;;;;;8.15;1.80;;;5.30;99.90;;;4.45;100.00;101503.03;4465624;26;20335;-59
2024/04/17 04:05:46;;;;;;;9.70;2.17;;;5.20;99.90;;;4.42;100.00;101497.22;4466390;26;20351;-59
2024/04/17 04:07:47;;;;;;;10.43;2.38;;;5.20;99.90;;;4.46;100.00;101502.13;4458321;26;20008;-59
2024/04/17 04:09:49;;;;;;;9.38;2.72;;;5.20;99.90;;;4.47;100.00;101506.41;4466404;26;20011;-58
2024/04/17 04:11:49;;;;;;;9.95;2.08;;;5.20;99.90;;;4.57;100.00;101505.84;4462681;26;20027;-59
2024/04/17 04:13:50;;;;;;;5.72;2.15;;;5.30;99.90;;;4.51;100.00;101514.06;4478718;26;20011;-58
2024/04/17 04:15:52;;;;;;;8.07;2.53;;;5.30;99.90;;;4.46;100.00;101506.50;4487333;26;20004;-58
2024/04/17 04:17:53;;;;;;;9.75;2.60;;;5.30;99.90;;;4.44;100.00;101501.41;4487488;26;20003;-57
2024/04/17 04:19:54;;;;;;;13.13;2.63;;;5.20;99.90;;;4.47;100.00;101509.03;4469071;26;20440;-59
2024/04/17 04:21:55;;;;;;;13.80;2.70;;;5.30;99.90;;;4.51;100.00;101498.38;4458002;26;20028;-59
2024/04/17 04:23:56;;;;;;;13.52;3.35;;;5.30;99.90;;;4.49;100.00;101495.84;4457930;26;20007;-58
2024/04/17 04:25:57;;;;;;;4.32;2.47;;;5.30;99.90;;;4.48;100.00;101505.47;4457781;26;20036;-59
2024/04/17 04:27:57;;;;;;;11.07;2.38;;;5.30;99.90;;;4.45;100.00;101497.81;4457985;26;20015;-59
2024/04/17 04:29:58;;;;;;;11.82;2.45;;;5.30;99.90;;;4.42;100.00;101505.84;4476378;26;20035;-59
2024/04/17 04:31:59;;;;;;;8.48;2.03;;;5.30;99.90;;;4.41;100.00;101504.19;4461330;26;20444;-58
2024/04/17 04:34:00;;;;;;;8.75;2.47;;;5.20;99.90;;;4.39;100.00;101500.00;4457600;26;20032;-59
2024/04/17 04:36:01;;;;;;;10.75;2.53;;;5.20;99.90;;;4.34;100.00;101502.06;4473062;26;20039;-59
2024/04/17 04:38:01;;;;;;;11.48;2.70;;;5.20;99.90;;;4.35;100.00;101506.34;4487181;26;20004;-59
2024/04/17 04:40:03;;;;;;;14.15;2.88;;;5.20;99.90;;;4.36;100.00;101501.03;4480344;26;20014;-59
2024/04/17 04:42:04;;;;;;;10.38;2.35;;;5.20;99.90;;;4.36;100.00;101503.63;4457826;26;20004;-59
2024/04/17 04:44:05;;;;;;;8.45;2.92;;;5.20;99.90;;;4.37;100.00;101501.88;4457478;26;20016;-58
2024/04/17 04:46:06;;;;;;;11.43;2.17;;;5.20;99.90;;;4.37;100.00;101501.88;4457011;26;20000;-59
2024/04/17 04:48:07;;;;;;;10.88;2.97;;;5.20;99.90;;;4.39;100.00;101500.81;4456950;26;20063;-58
2024/04/17 04:50:08;;;;;;;8.30;2.13;;;5.20;99.90;;;4.37;100.00;101507.94;4471878;26;20020;-59
2024/04/17 04:52:09;;;;;;;13.93;2.70;;;5.20;99.90;;;4.35;100.00;101512.44;4457614;26;20012;-58
2024/04/17 04:54:09;;;;;;;8.65;2.38;;;5.10;99.90;;;4.35;100.00;101515.03;4459053;26;20075;-59
2024/04/17 04:56:10;;;;;;;12.07;2.97;;;5.10;99.90;;;4.29;100.00;101511.97;4463169;26;20000;-59
2024/04/17 04:58:11;;;;;;;12.75;2.72;;;5.10;99.90;;;4.25;100.00;101510.47;4463993;26;20035;-59
2024/04/17 05:00:12;;;;;;;12.90;3.00;;;5.10;99.90;;;4.23;100.00;101512.34;4468269;26;20000;-59
2024/04/17 05:02:13;;;;;;;8.05;2.88;;;5.00;99.90;;;4.24;100.00;101504.41;4457554;26;20000;-59
2024/04/17 05:04:14;;;;;;;12.27;2.60;;;5.00;99.90;;;4.29;100.00;101504.97;4471900;26;20324;-59
2024/04/17 05:06:15;;;;;;;11.18;2.75;;;5.00;99.90;;;4.31;100.00;101513.53;4458661;26;20019;-59
2024/04/17 05:08:16;;;;;;;9.52;2.50;;;5.10;99.90;;;4.34;100.00;101512.50;4457437;26;20004;-59
2024/04/17 05:10:17;;;;;;;9.35;2.67;;;5.10;99.90;;;4.34;100.00;101510.75;4463359;26;20004;-59
2024/04/17 05:12:18;;;;;;;9.68;2.50;;;5.10;99.90;;;4.34;100.00;101517.72;4457231;26;20015;-58
2024/04/17 05:14:19;;;;;;;15.63;3.17;;;5.10;99.90;;;4.32;100.00;101510.00;4456998;26;20000;-59
2024/04/17 05:16:20;;;;;;;7.15;1.75;;;5.10;99.90;;;4.34;100.00;101502.91;4457180;26;20016;-59
2024/04/17 05:18:20;;;;;;;11.45;2.20;;;5.10;99.90;;;4.43;100.00;101512.75;4457192;26;20028;-58
2024/04/17 05:20:22;;;;;;;14.13;3.10;;;5.20;99.90;;;4.42;100.00;101512.88;4459098;26;20004;-59
2024/04/17 05:22:23;;;;;;;8.55;1.88;;;5.20;99.90;;;4.39;100.00;101521.72;4457279;26;20037;-59
2024/04/17 05:24:23;;;;;;;10.82;1.95;;;5.20;99.90;;;4.35;100.00;101514.19;4457189;26;20029;-59
2024/04/17 05:26:24;;;;;;;10.48;2.65;;;5.20;99.90;;;4.36;100.00;101521.91;4457180;26;20044;-58
2024/04/17 05:28:26;;;;;;;8.73;2.92;;;5.20;99.90;;;4.38;100.00;101520.06;4456963;26;20019;-58
2024/04/17 05:30:27;;;;;;;10.13;2.50;;;5.10;99.90;;;4.38;100.00;101514.00;4478618;26;20003;-59
2024/04/17 05:32:28;;;;;;;14.88;2.75;;;5.10;99.90;;;4.39;100.00;101521.72;4456869;26;20506;-59
2024/04/17 05:34:29;;;;;;;15.70;3.17;;;5.20;99.90;;;4.40;100.00;101522.56;4456914;26;20514;-59
2024/04/17 05:36:30;;;;;;;9.45;2.70;;;5.20;99.90;;;4.41;100.00;101521.63;4456961;26;20397;-59
2024/04/17 05:38:30;;;;;;;11.23;2.40;;;5.20;99.90;;;4.39;100.00;101520.91;4456804;26;20014;-58
2024/04/17 05:40:32;;;;;;;10.60;2.38;;;5.20;99.90;;;4.38;100.00;101524.44;4473425;26;20036;-59
2024/04/17 05:42:33;;;;;;;9.45;2.65;;;5.20;99.90;;;4.36;100.00;101524.53;4457010;26;20000;-59
2024/04/17 05:44:36;;;;;;;7.82;2.22;;;5.10;99.90;;;4.39;100.00;101534.78;4456394;26;20464;-59
2024/04/17 05:46:37;;;;;;;13.52;2.25;;;5.10;99.90;;;4.40;100.00;101528.63;4455070;26;20087;-58
2024/04/17 05:48:38;;;;;;;5.45;1.73;;;5.10;99.90;;;4.40;100.00;101527.78;4456673;26;20472;-59
2024/04/17 05:50:41;;;;;;;12.18;2.95;;;5.20;99.90;;;4.41;100.00;101527.72;4468873;26;20434;-59
2024/04/17 05:52:41;;;;;;;8.45;2.45;;;5.20;99.90;;;4.43;100.00;101533.66;4456856;26;20004;-58
2024/04/17 05:54:43;;;;;;;10.15;2.22;;;5.20;99.90;;;4.44;100.00;101537.97;4464002;26;20336;-59
2024/04/17 05:56:43;;;;;;;13.40;2.75;;;5.20;99.90;;;4.48;100.00;101539.41;4456580;26;20440;-59
2024/04/17 05:58:44;;;;;;;12.38;2.65;;;5.20;99.90;;;4.48;100.00;101542.03;4469884;26;20032;-58
2024/04/17 06:00:45;;;;;;;9.68;1.90;;;5.20;99.90;;;4.52;100.00;101547.06;4461335;26;20004;-58
2024/04/17 06:02:46;;;;;;;7.72;2.25;;;5.20;99.90;;;4.55;100.00;101547.72;4459806;26;20004;-59
2024/04/17 06:04:47;;;;;;;9.30;2.10;;;5.30;99.90;;;4.55;100.00;101534.66;4476971;26;20015;-59
2024/04/17 06:06:48;;;;;;;6.32;2.40;;;5.30;99.90;;;4.57;100.00;101535.38;4459657;26;20032;-59
2024/04/17 06:08:49;;;;;;;9.90;2.65;;;5.30;99.90;;;4.64;100.00;101546.28;4473055;26;20027;-59
2024/04/17 06:10:49;;;;;;;10.20;2.83;;;5.30;99.90;;;4.66;100.00;101547.84;4483172;26;20011;-59
2024/04/17 06:12:50;;;;;;;7.88;2.38;;;5.40;99.90;;;4.69;100.00;101546.84;4489033;26;20007;-58
2024/04/17 06:14:51;;;;;;;7.47;2.22;;;5.40;99.90;;;4.73;100.00;101541.31;4488709;26;20018;-59
2024/04/17 06:16:52;;;;;;;9.57;2.45;;;5.40;99.90;;;4.80;100.00;101546.97;4489100;26;20713;-59
2024/04/17 06:18:53;;;;;;;5.53;2.00;;;5.50;99.90;;;4.83;100.00;101554.63;4488774;26;20427;-59
2024/04/17 06:20:54;;;;;;;9.65;2.08;;;5.50;99.90;;;4.88;100.00;101552.53;4459312;26;20425;-59
2024/04/17 06:22:54;;;;;;;13.35;3.85;;;5.60;99.90;;;4.94;100.00;101552.16;4459496;26;20402;-59
2024/04/17 06:24:55;;;;;;;10.38;1.92;;;5.60;99.90;;;5.01;100.00;101545.59;4459515;26;20070;-58
2024/04/17 06:26:56;;;;;;;7.72;2.00;;;5.70;99.90;;;5.07;100.00;101552.19;4459514;26;20008;-59
2024/04/17 06:28:57;;;;;;;8.55;1.92;;;5.80;99.90;;;5.12;100.00;101558.78;4459487;26;20036;-59
2024/04/17 06:30:58;;;;;;;10.43;2.30;;;5.80;99.90;;;5.21;100.00;101552.09;4480037;26;20044;-59
2024/04/17 06:32:59;;;;;;;8.70;2.30;;;5.90;99.90;;;5.26;100.00;101557.84;4459482;26;20080;-59
2024/04/17 06:34:59;;;;;;;5.38;2.38;;;6.00;99.90;;;5.35;100.00;101560.69;4459375;26;20040;-59
2024/04/17 06:37:00;;;;;;;7.78;1.90;;;6.00;99.90;;;5.42;100.00;101558.53;4459343;26;20000;-59
2024/04/17 06:39:01;;;;;;;7.68;2.20;;;6.10;99.90;;;5.53;100.00;101556.84;4464649;26;20048;-59
2024/04/17 06:41:02;;;;;;;8.90;2.38;;;6.20;99.90;;;5.61;100.00;101565.97;4474585;26;20015;-58
2024/04/17 06:43:03;;;;;;;6.05;2.47;;;6.30;99.90;;;5.66;100.00;101563.88;4458931;26;20081;-58
2024/04/17 06:45:06;;;;;;;6.65;2.60;;;6.30;99.90;;;5.70;100.00;101562.72;4459010;26;20015;-59
2024/04/17 06:47:07;;;;;;;10.02;2.63;;;6.40;99.90;;;5.76;100.00;101570.16;4459196;26;20031;-59
2024/04/17 06:49:08;;;;;;;8.52;2.95;;;6.40;99.90;;;5.81;100.00;101573.31;4458883;26;20008;-58
2024/04/17 06:51:09;;;;;;;10.25;3.60;;;6.50;99.90;;;5.88;100.00;101579.84;4459030;26;20332;-59
2024/04/17 06:53:11;;;;;;;13.05;5.85;;;6.50;99.90;;;5.96;100.00;101580.97;4459048;26;20004;-59
2024/04/17 06:55:12;;;;;;;23.15;9.35;;;6.60;99.90;;;6.16;100.00;101566.47;4470620;26;20013;-59
2024/04/17 06:57:12;;;;;;;16.00;9.20;;;6.70;99.90;;;6.32;100.00;101566.25;4487892;26;20451;-59
2024/04/17 06:59:13;;;;;;;10.63;7.53;;;6.90;99.90;;;6.44;100.00;101571.47;4468265;26;20333;-59
2024/04/17 07:01:14;;;;;;;13.50;6.95;;;7.00;99.90;;;6.54;100.00;101569.03;4480950;26;20022;-59
2024/04/17 07:03:15;;;;;;;14.73;5.60;;;7.10;99.90;;;6.60;100.00;101568.59;4459071;26;20015;-59
2024/04/17 07:05:16;;;;;;;10.75;4.53;;;7.20;99.90;;;6.68;100.00;101571.47;4478428;26;20048;-59
2024/04/17 07:07:17;;;;;;;10.50;4.07;;;7.30;99.90;;;6.74;100.00;101575.44;4478707;26;20011;-59
2024/04/17 07:09:18;;;;;;;9.27;3.58;;;7.40;99.90;;;6.81;100.00;101571.44;4487878;26;20076;-59
2024/04/17 07:11:18;;;;;;;12.60;3.55;;;7.40;99.90;;;6.89;100.00;101574.34;4488344;26;19999;-59
2024/04/17 07:13:19;;;;;;;12.57;3.08;;;7.50;99.90;;;6.95;100.00;101574.72;4488007;26;20014;-59
2024/04/17 07:15:20;;;;;;;9.50;3.35;;;7.60;99.90;;;7.04;100.00;101575.84;4465561;26;20004;-59
2024/04/17 07:17:21;;;;;;;9.80;3.30;;;7.70;99.90;;;7.13;100.00;101573.38;4458945;26;20025;-59
2024/04/17 07:19:24;;;;;;;9.43;2.65;;;7.70;99.90;;;7.16;100.00;101578.41;4458316;26;20000;-58
2024/04/17 07:21:25;;;;;;;10.93;2.95;;;7.80;99.90;;;7.21;100.00;101570.16;4458637;26;20008;-58
2024/04/17 07:23:26;;;;;;;9.27;2.30;;;7.90;99.90;;;7.26;100.00;101573.28;4458732;26;20024;-59
2024/04/17 07:25:27;;;;;;;7.22;1.80;;;7.90;99.90;;;7.29;100.00;101567.78;4481052;26;20031;-59
2024/04/17 07:27:27;;;;;;;7.07;1.60;;;8.00;99.90;;;7.35;100.00;101569.97;4458826;26;20001;-59
2024/04/17 07:29:28;;;;;;;7.57;2.20;;;8.00;99.90;;;7.44;100.00;101571.06;4458227;26;20044;-59
2024/04/17 07:31:29;;;;;;;14.30;3.20;;;8.10;99.90;;;7.53;100.00;101573.00;4458668;26;20000;-59
2024/04/17 07:33:30;;;;;;;8.32;1.48;;;8.10;99.90;;;7.58;100.00;101574.34;4458665;26;20004;-59
2024/04/17 07:35:31;;;;;;;6.97;1.88;;;8.20;99.90;;;7.64;100.00;101567.78;4476677;26;20028;-59
2024/04/17 07:37:32;;;;;;;6.65;1.83;;;8.30;99.90;;;7.69;100.00;101569.09;4458600;26;20004;-59
2024/04/17 07:39:33;;;;;;;10.00;1.92;;;8.40;99.90;;;7.86;100.00;101569.56;4458740;26;20078;-58
2024/04/17 07:41:34;;;;;;;6.53;2.08;;;8.50;99.90;;;7.92;100.00;101577.81;4458617;26;20000;-59
2024/04/17 07:43:34;;;;;;;9.25;2.38;;;8.50;99.90;;;7.97;100.00;101570.44;4471313;26;20004;-59
2024/04/17 07:45:35;;;;;;;8.13;2.65;;;8.60;99.90;;;8.05;100.00;101575.09;4463858;26;20013;-59
2024/04/17 07:47:36;;;;;;;7.90;2.75;;;8.60;99.90;;;8.16;100.00;101580.34;4474520;26;20028;-59
2024/04/17 07:49:37;;;;;;;8.68;2.38;;;8.80;99.90;;;8.24;100.00;101580.59;4470878;26;20012;-59
2024/04/17 07:51:38;;;;;;;4.90;1.80;;;8.80;99.90;;;8.28;100.00;101580.25;4469646;26;20001;-59
2024/04/17 07:53:39;;;;;;;8.27;1.92;;;8.90;99.90;;;8.33;100.00;101577.28;4473743;26;20028;-59
2024/04/17 07:55:40;;;;;;;8.00;1.55;;;9.00;99.90;;;8.42;100.00;101581.81;4471890;26;20010;-59
2024/04/17 07:57:40;;;;;;;6.82;1.73;;;9.00;99.90;;;8.55;100.00;101581.63;4475528;26;20346;-59
2024/04/17 07:59:41;;;;;;;5.82;1.60;;;9.10;99.90;;;8.61;100.00;101584.63;4469215;26;20007;-59
2024/04/17 08:01:42;;;;;;;7.70;1.73;;;9.20;99.90;;;8.68;100.00;101577.91;4473556;26;20003;-59
2024/04/17 08:03:44;;;;;;;6.97;1.50;;;9.30;99.90;;;8.80;100.00;101576.09;4470857;26;20072;-58
2024/04/17 08:05:45;;;;;;;6.32;1.83;;;9.40;99.90;;;8.89;100.00;101581.44;4469056;26;19999;-59
2024/04/17 08:07:46;;;;;;;6.47;1.60;;;9.50;99.90;;;8.95;100.00;101581.91;4466356;26;20358;-59
2024/04/17 08:09:47;;;;;;;8.20;1.65;;;9.60;99.90;;;9.00;100.00;101579.72;4477395;26;20000;-59
2024/04/17 08:11:47;;;;;;;8.55;2.50;;;9.60;99.90;;;9.10;100.00;101576.22;4457909;26;20036;-59
2024/04/17 08:13:48;;;;;;;6.25;1.58;;;9.70;99.90;;;9.18;100.00;101575.59;4457735;26;20040;-59
2024/04/17 08:15:54;;;;;;;7.05;1.38;;;9.80;99.90;;;9.24;100.00;101570.66;4461261;26;20016;-59
2024/04/17 08:17:55;;;;;;;7.38;1.95;;;9.80;99.90;;;9.33;100.00;101574.31;4470766;26;20004;-59
2024/04/17 08:19:57;;;;;;;5.35;1.08;;;9.90;99.90;;;9.41;100.00;101577.97;4487316;26;20015;-59
2024/04/17 08:21:58;;;;;;;10.57;1.40;;;10.00;99.90;;;9.51;100.00;101577.19;4486219;26;20072;-59
2024/04/17 08:23:59;;;;;;;4.88;1.85;;;10.10;99.90;;;9.52;100.00;101577.09;4486620;26;20008;-59
2024/04/17 08:26:00;;;;;;;8.98;1.63;;;10.10;99.90;;;9.59;100.00;101569.50;4458132;26;20012;-59